createdAt,value
2022-09-28T00:00:26.291Z,83.08007813
2022-09-28T00:02:01.369Z,82.63671875
2022-09-28T00:02:41.865Z,82.60742188
2022-09-28T00:03:44.677Z,82.35742188
2022-09-28T00:04:44.337Z,82.421875
2022-09-28T00:05:40.594Z,82.47851563
2022-09-28T00:06:45.777Z,82.921875
2022-09-28T00:07:44.509Z,82.54296875
2022-09-28T00:08:40.130Z,82.45117188
2022-09-28T00:09:39.662Z,82.03808594
2022-09-28T00:10:34.387Z,81.90039063
2022-09-28T00:11:43.395Z,82.08691406
2022-09-28T00:12:36.023Z,81.92773438
2022-09-28T00:13:40.214Z,82.21289063
2022-09-28T00:14:39.754Z,82.63378906
2022-09-28T00:15:40.429Z,82.47558594
2022-09-28T00:16:37.879Z,82.75390625
2022-09-28T00:17:38.167Z,82.74121094
2022-09-28T00:18:40.302Z,82.75976563
2022-09-28T00:19:39.406Z,82.54589844
2022-09-28T00:21:36.608Z,82.66894531
2022-09-28T00:22:36.313Z,82.57421875
2022-09-28T00:23:32.720Z,82.42578125
2022-09-28T00:24:37.473Z,82.48046875
2022-09-28T00:25:30.377Z,82.4296875
2022-09-28T00:26:33.599Z,82.20117188
2022-09-28T00:27:25.837Z,82.29003906
2022-09-28T00:28:28.107Z,82.43261719
2022-09-28T00:29:23.099Z,82.46777344
2022-09-28T00:30:26.903Z,82.68457031
2022-09-28T00:31:19.349Z,82.84863281
2022-09-28T00:33:30.331Z,82.58300781
2022-09-28T00:33:53.111Z,82.296875
2022-09-28T00:34:51.081Z,81.56933594
2022-09-28T00:35:47.885Z,81.60742188
2022-09-28T00:36:52.723Z,81.79882813
2022-09-28T00:37:52.329Z,82.05664063
2022-09-28T00:38:55.094Z,82.11132813
2022-09-28T00:39:54.434Z,82.18652344
2022-09-28T00:40:50.425Z,82.328125
2022-09-28T00:41:58.102Z,82.38085938
2022-09-28T00:42:50.798Z,82.50683594
2022-09-28T00:43:52.829Z,82.41894531
2022-09-28T00:44:47.332Z,82.48925781
2022-09-28T00:45:49.781Z,82.33789063
2022-09-28T00:46:51.682Z,82.43359375
2022-09-28T00:47:53.198Z,82.50683594
2022-09-28T00:48:45.745Z,82.94824219
2022-09-28T00:49:45.622Z,82.578125
2022-09-28T00:51:43.450Z,82.625
2022-09-28T00:52:37.631Z,82.9140625
2022-09-28T00:53:39.302Z,82.82910156
2022-09-28T00:54:37.401Z,83.10644531
2022-09-28T00:56:31.157Z,83.06640625
2022-09-28T00:57:32.587Z,82.86425781
2022-09-28T00:58:27.836Z,82.89746094
2022-09-28T00:59:34.163Z,82.84960938
2022-09-28T01:00:29.507Z,83.04589844
2022-09-28T01:01:36.715Z,82.77441406
2022-09-28T01:02:31.397Z,82.88867188
2022-09-28T01:03:30.109Z,82.98632813
2022-09-28T01:04:30.086Z,82.95996094
2022-09-28T01:06:25.855Z,83.04785156
2022-09-28T01:07:20.305Z,82.90234375
2022-09-28T01:08:21.606Z,82.99707031
2022-09-28T01:09:16.147Z,82.99902344
2022-09-28T01:10:59.944Z,82.50097656
2022-09-28T01:11:54.964Z,82.15917969
2022-09-28T01:12:57.198Z,82.328125
2022-09-28T01:13:57.197Z,82.01074219
2022-09-28T01:14:52.374Z,82.23828125
2022-09-28T01:16:52.788Z,82.63183594
2022-09-28T01:17:49.039Z,82.62011719
2022-09-28T01:18:52.180Z,82.64257813
2022-09-28T01:20:01.653Z,82.47363281
2022-09-28T01:21:59.489Z,82.59960938
2022-09-28T01:22:53.913Z,82.87890625
2022-09-28T01:24:06.032Z,82.33300781
2022-09-28T01:24:58.353Z,82.04296875
2022-09-28T01:25:59.575Z,81.99121094
2022-09-28T01:26:54.805Z,81.75976563
2022-09-28T01:27:56.756Z,81.67089844
2022-09-28T01:28:54.936Z,81.88867188
2022-09-28T01:29:56.068Z,81.69335938
2022-09-28T01:30:54.102Z,81.53417969
2022-09-28T01:31:56.533Z,81.58007813
2022-09-28T01:32:51.953Z,82.08984375
2022-09-28T01:33:50.571Z,82.11035156
2022-09-28T01:34:50.677Z,81.86035156
2022-09-28T01:36:47.189Z,82.16113281
2022-09-28T01:37:50.448Z,82.14453125
2022-09-28T01:38:51.720Z,82.40917969
2022-09-28T01:39:50.764Z,82.12695313
2022-09-28T01:40:52.122Z,82.25097656
2022-09-28T01:41:47.273Z,82.2890625
2022-09-28T01:42:48.418Z,81.91796875
2022-09-28T01:43:45.152Z,82.18164063
2022-09-28T01:44:48.966Z,82.42578125
2022-09-28T01:46:40.408Z,82.15234375
2022-09-28T01:47:35.098Z,82.49414063
2022-09-28T01:48:37.342Z,82.3125
2022-09-28T01:49:37.246Z,82.18457031
2022-09-28T01:51:34.125Z,82.19433594
2022-09-28T01:52:30.399Z,82.23925781
2022-09-28T01:53:32.896Z,82.31738281
2022-09-28T01:54:28.336Z,82.4921875
2022-09-28T01:56:38.061Z,82.26464844
2022-09-28T01:57:33.320Z,82.39550781
2022-09-28T01:58:31.453Z,82.50878906
2022-09-28T01:59:34.962Z,82.85253906
2022-09-28T02:01:19.521Z,82.64746094
2022-09-28T02:01:59.941Z,82.3984375
2022-09-28T02:02:56.843Z,82.30664063
2022-09-28T02:03:56.167Z,82.46875
2022-09-28T02:04:55.799Z,82.07324219
2022-09-28T02:06:56.693Z,82.53125
2022-09-28T02:07:56.788Z,82.41601563
2022-09-28T02:08:55.963Z,82.62304688
2022-09-28T02:09:52.304Z,82.42871094
2022-09-28T02:11:55.327Z,82.84570313
2022-09-28T02:12:58.075Z,82.94726563
2022-09-28T02:13:58.416Z,83.15039063
2022-09-28T02:14:54.462Z,82.67675781
2022-09-28T02:17:00.841Z,82.76367188
2022-09-28T02:18:01.612Z,82.57617188
2022-09-28T02:18:56.546Z,82.58886719
2022-09-28T02:19:58.532Z,82.39160156
2022-09-28T02:20:52.974Z,82.875
2022-09-28T02:21:52.769Z,82.5625
2022-09-28T02:22:48.950Z,82.70117188
2022-09-28T02:23:47.535Z,82.65625
2022-09-28T02:24:47.103Z,82.72070313
2022-09-28T02:25:44.353Z,82.48730469
2022-09-28T02:26:47.175Z,82.39550781
2022-09-28T02:27:40.559Z,82.62597656
2022-09-28T02:28:42.602Z,82.91601563
2022-09-28T02:29:38.362Z,82.74511719
2022-09-28T02:31:36.338Z,82.51074219
2022-09-28T02:32:41.605Z,82.78808594
2022-09-28T02:33:37.310Z,82.7734375
2022-09-28T02:34:39.462Z,82.74023438
2022-09-28T02:36:29.915Z,82.91210938
2022-09-28T02:37:29.364Z,82.91113281
2022-09-28T02:39:13.923Z,83.18457031
2022-09-28T02:39:28.401Z,82.94433594
2022-09-28T02:41:24.779Z,82.06835938
2022-09-28T02:42:25.416Z,82.25683594
2022-09-28T02:43:21.831Z,82.28710938
2022-09-28T02:44:26.979Z,82.45996094
2022-09-28T02:46:21.492Z,82.43457031
2022-09-28T02:47:20.468Z,82.51660156
2022-09-28T02:48:36.119Z,82.56152344
2022-09-28T02:48:43.013Z,82.56152344
2022-09-28T02:49:00.112Z,82.56152344
2022-09-28T02:49:22.252Z,82.56640625
2022-09-28T02:51:21.584Z,82.47851563
2022-09-28T02:52:22.642Z,82.3125
2022-09-28T02:53:25.467Z,82.23046875
2022-09-28T02:54:19.007Z,82.31640625
2022-09-28T02:56:18.998Z,82.5625
2022-09-28T02:57:18.738Z,82.28320313
2022-09-28T02:58:17.586Z,82.83886719
2022-09-28T02:59:21.495Z,82.58886719
2022-09-28T03:01:23.554Z,82.5234375
2022-09-28T03:02:16.939Z,82.44335938
2022-09-28T03:03:20.111Z,82.70019531
2022-09-28T03:04:18.215Z,82.64648438
2022-09-28T03:06:28.018Z,82.23535156
2022-09-28T03:07:27.602Z,82.46777344
2022-09-28T03:08:30.447Z,82.46582031
2022-09-28T03:09:31.884Z,82.74023438
2022-09-28T03:11:32.238Z,82.51074219
2022-09-28T03:12:28.657Z,82.51269531
2022-09-28T03:13:33.181Z,82.33398438
2022-09-28T03:14:28.589Z,82.45703125
2022-09-28T03:15:32.777Z,82.80761719
2022-09-28T03:16:30.482Z,82.46191406
2022-09-28T03:18:06.679Z,81.76269531
2022-09-28T03:20:47.762Z,79.9921875
2022-09-28T03:22:09.832Z,78.875
2022-09-28T03:23:24.307Z,79.19628906
2022-09-28T03:23:24.771Z,79.19628906
2022-09-28T03:23:30.213Z,79.19628906
2022-09-28T03:24:13.298Z,79.22265625
2022-09-28T03:25:12.054Z,79.26074219
2022-09-28T03:26:08.552Z,78.79394531
2022-09-28T03:27:03.144Z,78.93164063
2022-09-28T03:28:12.349Z,79.14648438
2022-09-28T03:29:07.467Z,79.69238281
2022-09-28T03:30:07.089Z,80.04199219
2022-09-28T03:31:02.125Z,80.19335938
2022-09-28T03:32:02.279Z,80.49609375
2022-09-28T03:32:56.597Z,80.37011719
2022-09-28T03:33:59.522Z,80.26269531
2022-09-28T03:34:53.835Z,80.20605469
2022-09-28T03:35:56.799Z,80.14160156
2022-09-28T03:36:55.728Z,79.94433594
2022-09-28T03:37:58.520Z,79.91894531
2022-09-28T03:38:57.912Z,80.06347656
2022-09-28T03:39:58.146Z,80.05566406
2022-09-28T03:40:52.195Z,80.22363281
2022-09-28T03:41:53.472Z,80.26171875
2022-09-28T03:42:52.171Z,80.50195313
2022-09-28T03:43:46.321Z,80.47363281
2022-09-28T03:44:48.730Z,80.95214844
2022-09-28T03:45:43.165Z,80.73046875
2022-09-28T03:46:45.738Z,80.74902344
2022-09-28T03:47:45.717Z,80.64746094
2022-09-28T03:48:38.436Z,80.60742188
2022-09-28T03:49:39.478Z,80.89746094
2022-09-28T03:51:41.621Z,80.50488281
2022-09-28T03:52:44.030Z,80.76855469
2022-09-28T03:53:37.392Z,80.87792969
2022-09-28T03:54:44.691Z,80.92089844
2022-09-28T03:55:41.607Z,81.17382813
2022-09-28T03:56:33.511Z,80.75292969
2022-09-28T03:57:32.452Z,81.13085938
2022-09-28T03:58:31.500Z,80.83105469
2022-09-28T03:59:31.509Z,80.625
2022-09-28T04:01:30.322Z,80.54296875
2022-09-28T04:02:25.183Z,80.60644531
2022-09-28T04:03:21.726Z,81.08398438
2022-09-28T04:04:22.914Z,81.06738281
2022-09-28T04:06:17.553Z,81.23535156
2022-09-28T04:07:10.140Z,81.05761719
2022-09-28T04:08:11.343Z,81.16796875
2022-09-28T04:09:04.880Z,81.29101563
2022-09-28T04:10:51.243Z,81.02148438
2022-09-28T04:11:43.005Z,80.62011719
2022-09-28T04:11:59.504Z,80.62011719
2022-09-28T04:12:02.364Z,80.62011719
2022-09-28T04:12:37.528Z,80.50878906
2022-09-28T04:13:33.683Z,80.44042969
2022-09-28T04:14:34.030Z,80.22363281
2022-09-28T04:15:29.395Z,80.35742188
2022-09-28T04:16:29.264Z,80.234375
2022-09-28T04:17:30.493Z,80.70605469
2022-09-28T04:18:25.777Z,80.53417969
2022-09-28T04:19:30.274Z,80.53808594
2022-09-28T04:20:23.158Z,80.96289063
2022-09-28T04:21:31.590Z,80.34375
2022-09-28T04:22:24.178Z,81.01953125
2022-09-28T04:23:23.484Z,81.03808594
2022-09-28T04:24:19.570Z,81.24902344
2022-09-28T04:26:14.093Z,81.12597656
2022-09-28T04:27:15.949Z,81.56542969
2022-09-28T04:28:17.639Z,81.61816406
2022-09-28T04:29:13.952Z,81.67382813
2022-09-28T04:31:14.880Z,81.37304688
2022-09-28T04:32:10.126Z,81.90332031
2022-09-28T04:33:10.752Z,81.88671875
2022-09-28T04:34:05.082Z,81.95703125
2022-09-28T04:35:04.886Z,81.59082031
2022-09-28T04:36:00.250Z,81.60253906
2022-09-28T04:37:02.703Z,81.41894531
2022-09-28T04:37:55.251Z,81.35546875
2022-09-28T04:38:56.811Z,81.62011719
2022-09-28T04:39:52.831Z,81.51171875
2022-09-28T04:40:58.850Z,81.64550781
2022-09-28T04:41:52.634Z,81.62109375
2022-09-28T04:43:54.473Z,81.21777344
2022-09-28T04:44:36.072Z,80.79589844
2022-09-28T04:45:34.229Z,80.53710938
2022-09-28T04:46:35.353Z,80.71875
2022-09-28T04:47:31.707Z,80.92480469
2022-09-28T04:48:33.468Z,80.89355469
2022-09-28T04:49:27.437Z,80.96679688
2022-09-28T04:50:26.343Z,81.35742188
2022-09-28T04:51:21.588Z,80.90625
2022-09-28T04:52:23.208Z,81.29980469
2022-09-28T04:53:19.534Z,81.70898438
2022-09-28T04:54:33.509Z,81.69921875
2022-09-28T04:55:26.135Z,81.75
2022-09-28T04:56:22.915Z,82.24902344
2022-09-28T04:57:23.150Z,82.34960938
2022-09-28T04:58:17.399Z,81.6640625
2022-09-28T04:59:23.841Z,81.8984375
2022-09-28T05:01:21.804Z,82.01464844
2022-09-28T05:02:17.480Z,82.24609375
2022-09-28T05:03:22.315Z,82.32519531
2022-09-28T05:04:25.764Z,81.98144531
2022-09-28T05:05:23.162Z,82.03125
2022-09-28T05:06:18.354Z,81.22753906
2022-09-28T05:07:17.798Z,81.51269531
2022-09-28T05:08:15.878Z,81.85839844
2022-09-28T05:09:17.629Z,82.03222656
2022-09-28T05:10:11.866Z,82.14648438
2022-09-28T05:11:09.141Z,82.17382813
2022-09-28T05:12:08.148Z,81.62792969
2022-09-28T05:13:06.444Z,82.05957031
2022-09-28T05:14:08.199Z,82.00390625
2022-09-28T05:15:01.658Z,82.04785156
2022-09-28T05:16:05.457Z,81.70703125
2022-09-28T05:16:59.341Z,81.97363281
2022-09-28T05:17:55.375Z,81.59765625
2022-09-28T05:18:59.214Z,81.61328125
2022-09-28T05:19:56.405Z,81.49316406
2022-09-28T05:21:43.041Z,81.35449219
2022-09-28T05:22:28.836Z,81.56835938
2022-09-28T05:23:34.277Z,81.41308594
2022-09-28T05:24:34.966Z,81.42480469
2022-09-28T05:26:41.144Z,81.48632813
2022-09-28T05:27:42.540Z,81.38769531
2022-09-28T05:28:42.781Z,81.51855469
2022-09-28T05:29:44.141Z,81.14941406
2022-09-28T05:30:42.450Z,81.44726563
2022-09-28T05:31:45.132Z,81.71875
2022-09-28T05:32:43.250Z,81.98535156
2022-09-28T05:33:45.882Z,81.53222656
2022-09-28T05:34:42.467Z,82.01074219
2022-09-28T05:35:53.314Z,81.99902344
2022-09-28T05:35:55.937Z,81.99902344
2022-09-28T05:36:47.346Z,81.6640625
2022-09-28T05:37:51.603Z,82.125
2022-09-28T05:38:57.134Z,82.08886719
2022-09-28T05:39:55.075Z,81.85058594
2022-09-28T05:41:55.082Z,81.79199219
2022-09-28T05:42:56.452Z,82.125
2022-09-28T05:43:55.190Z,82.40039063
2022-09-28T05:44:58.741Z,82.07519531
2022-09-28T05:46:55.216Z,82.37988281
2022-09-28T05:47:55.525Z,82.24902344
2022-09-28T05:48:55.277Z,82.49804688
2022-09-28T05:50:00.512Z,82.27148438
2022-09-28T05:51:55.366Z,82.29199219
2022-09-28T05:53:45.796Z,82.23535156
2022-09-28T05:54:24.251Z,82.33300781
2022-09-28T05:56:26.895Z,81.92480469
2022-09-28T05:57:24.964Z,81.86816406
2022-09-28T05:58:27.320Z,82.04101563
2022-09-28T05:59:30.094Z,82.30761719
2022-09-28T06:01:31.457Z,82.25585938
2022-09-28T06:02:30.298Z,82.54199219
2022-09-28T06:03:31.446Z,82.59863281
2022-09-28T06:04:29.422Z,82.53125
2022-09-28T06:06:31.508Z,82.64257813
2022-09-28T06:07:33.634Z,82.74023438
2022-09-28T06:08:32.748Z,82.79394531
2022-09-28T06:09:32.619Z,82.52832031
2022-09-28T06:11:35.158Z,82.96875
2022-09-28T06:12:31.538Z,83.25878906
2022-09-28T06:13:34.916Z,83.12207031
2022-09-28T06:14:29.511Z,83.4375
2022-09-28T06:15:42.081Z,83.05957031
2022-09-28T06:16:40.486Z,82.87402344
2022-09-28T06:16:43.934Z,82.87402344
2022-09-28T06:17:38.761Z,82.56152344
2022-09-28T06:18:41.183Z,82.24121094
2022-09-28T06:19:42.066Z,82.56933594
2022-09-28T06:21:46.293Z,82.89648438
2022-09-28T06:23:33.308Z,82.46679688
2022-09-28T06:24:13.474Z,82.71289063
2022-09-28T06:25:12.021Z,82.57324219
2022-09-28T06:26:12.819Z,82.109375
2022-09-28T06:27:11.795Z,82.27929688
2022-09-28T06:28:12.419Z,82.36230469
2022-09-28T06:29:16.005Z,82.05566406
2022-09-28T06:29:19.636Z,82.05566406
2022-09-28T06:30:12.052Z,82.53222656
2022-09-28T06:32:14.400Z,82.37207031
2022-09-28T06:33:07.170Z,82.45898438
2022-09-28T06:34:09.061Z,82.63574219
2022-09-28T06:35:01.559Z,82.74414063
2022-09-28T06:36:59.590Z,82.43164063
2022-09-28T06:37:58.995Z,82.64355469
2022-09-28T06:38:58.134Z,83.07910156
2022-09-28T06:39:52.465Z,82.92089844
2022-09-28T06:41:49.738Z,82.72167969
2022-09-28T06:42:48.086Z,82.99707031
2022-09-28T06:43:43.784Z,83.0625
2022-09-28T06:44:50.629Z,82.75585938
2022-09-28T06:46:46.669Z,83.04785156
2022-09-28T06:47:41.447Z,83.14648438
2022-09-28T06:48:39.189Z,83.4140625
2022-09-28T06:49:33.602Z,83.35058594
2022-09-28T06:51:29.075Z,83.26855469
2022-09-28T06:52:30.742Z,83.42285156
2022-09-28T06:53:30.826Z,83.015625
2022-09-28T06:54:31.096Z,83.18457031
2022-09-28T06:55:22.912Z,82.90136719
2022-09-28T06:56:30.603Z,82.55566406
2022-09-28T06:56:32.995Z,82.55566406
2022-09-28T06:57:25.809Z,82.59960938
2022-09-28T06:58:20.206Z,82.52832031
2022-09-28T06:59:24.006Z,82.67578125
2022-09-28T07:01:21.273Z,82.66796875
2022-09-28T07:02:13.154Z,82.40917969
2022-09-28T07:03:11.449Z,82.41894531
2022-09-28T07:04:10.297Z,82.6640625
2022-09-28T07:05:05.996Z,82.44238281
2022-09-28T07:06:51.515Z,81.97460938
2022-09-28T07:07:31.608Z,81.953125
2022-09-28T07:08:29.711Z,81.22265625
2022-09-28T07:09:33.024Z,81.44628906
2022-09-28T07:09:35.880Z,81.44628906
2022-09-28T07:11:28.603Z,81.04003906
2022-09-28T07:12:23.772Z,81.31835938
2022-09-28T07:13:47.044Z,81.296875
2022-09-28T07:13:48.415Z,81.296875
2022-09-28T07:13:49.688Z,81.296875
2022-09-28T07:14:43.085Z,81.47558594
2022-09-28T07:14:46.060Z,81.47558594
2022-09-28T07:14:46.842Z,81.47558594
2022-09-28T07:16:17.042Z,81.04296875
2022-09-28T07:17:17.809Z,80.89746094
2022-09-28T07:18:13.200Z,81.015625
2022-09-28T07:19:13.900Z,81.29589844
2022-09-28T07:20:18.125Z,81.81347656
2022-09-28T07:20:19.130Z,81.81347656
2022-09-28T07:20:19.729Z,81.81347656
2022-09-28T07:21:17.541Z,82.13574219
2022-09-28T07:21:26.669Z,82.13574219
2022-09-28T07:21:28.607Z,82.13574219
2022-09-28T07:22:10.038Z,81.73144531
2022-09-28T07:23:18.647Z,81.48535156
2022-09-28T07:23:19.034Z,81.48535156
2022-09-28T07:23:19.670Z,81.48535156
2022-09-28T07:24:07.951Z,81.76953125
2022-09-28T07:25:09.566Z,81.81445313
2022-09-28T07:27:05.880Z,82.0546875
2022-09-28T07:28:01.980Z,82.25585938
2022-09-28T07:29:01.149Z,82.31835938
2022-09-28T07:29:59.482Z,82.02636719
2022-09-28T07:31:55.801Z,82.29492188
2022-09-28T07:32:50.992Z,82.33789063
2022-09-28T07:33:48.757Z,82.46679688
2022-09-28T07:34:47.510Z,82.59082031
2022-09-28T07:36:43.706Z,82.42382813
2022-09-28T07:37:36.249Z,82.46679688
2022-09-28T07:38:42.032Z,82.62402344
2022-09-28T07:39:34.514Z,82.43847656
2022-09-28T07:41:29.488Z,83.04296875
2022-09-28T07:42:30.663Z,82.6328125
2022-09-28T07:43:22.895Z,82.82226563
2022-09-28T07:44:20.042Z,82.55371094
2022-09-28T07:46:19.497Z,82.53417969
2022-09-28T07:47:18.989Z,82.54199219
2022-09-28T07:48:13.809Z,82.875
2022-09-28T07:49:47.805Z,82.09667969
2022-09-28T07:52:29.131Z,80.74902344
2022-09-28T07:52:50.120Z,80.01464844
2022-09-28T07:53:53.535Z,80.09179688
2022-09-28T07:54:48.136Z,79.73144531
2022-09-28T07:56:41.907Z,79.96582031
2022-09-28T07:57:41.248Z,80.35546875
2022-09-28T07:58:36.369Z,80.68066406
2022-09-28T07:59:34.769Z,81.48144531
2022-09-28T08:01:28.147Z,81.59277344
2022-09-28T08:02:22.686Z,81.61035156
2022-09-28T08:03:19.255Z,81.78710938
2022-09-28T08:04:18.477Z,81.95117188
2022-09-28T08:05:13.754Z,81.88085938
2022-09-28T08:06:10.292Z,81.95898438
2022-09-28T08:07:08.648Z,82.20898438
2022-09-28T08:08:04.636Z,82.2734375
2022-09-28T08:09:07.418Z,82.19335938
2022-09-28T08:10:00.025Z,82.09863281
2022-09-28T08:11:01.492Z,82.42382813
2022-09-28T08:11:53.336Z,82.44433594
2022-09-28T08:12:54.636Z,82.57910156
2022-09-28T08:13:48.849Z,82.54492188
2022-09-28T08:14:46.900Z,82.58398438
2022-09-28T08:16:41.032Z,82.31054688
2022-09-28T08:17:42.917Z,82.02050781
2022-09-28T08:18:35.514Z,82.27929688
2022-09-28T08:19:38.625Z,82.68261719
2022-09-28T08:21:33.308Z,82.46484375
2022-09-28T08:23:17.190Z,82.27246094
2022-09-28T08:23:56.647Z,81.95996094
2022-09-28T08:24:54.183Z,81.52929688
2022-09-28T08:26:47.846Z,81.73144531
2022-09-28T08:27:48.310Z,81.67480469
2022-09-28T08:28:43.589Z,81.77050781
2022-09-28T08:29:45.480Z,81.64746094
2022-09-28T08:30:38.120Z,82.04882813
2022-09-28T08:31:38.187Z,82.19628906
2022-09-28T08:32:33.444Z,82.11035156
2022-09-28T08:33:32.865Z,82.11035156
2022-09-28T08:34:28.479Z,82.34863281
2022-09-28T08:35:28.001Z,82.56542969
2022-09-28T08:36:25.153Z,82.48925781
2022-09-28T08:37:24.750Z,82.58007813
2022-09-28T08:38:20.101Z,82.44726563
2022-09-28T08:39:19.669Z,82.52441406
2022-09-28T08:40:14.624Z,82.68261719
2022-09-28T08:42:09.716Z,82.76367188
2022-09-28T08:43:11.588Z,82.43945313
2022-09-28T08:44:04.275Z,82
2022-09-28T08:45:06.397Z,81.85644531
2022-09-28T08:45:58.969Z,82.15917969
2022-09-28T08:46:56.202Z,82.05078125
2022-09-28T08:47:56.285Z,82.12792969
2022-09-28T08:49:06.876Z,82.2734375
2022-09-28T08:49:20.516Z,82.2734375
2022-09-28T08:49:23.799Z,82.2734375
2022-09-28T08:49:52.399Z,82.04492188
2022-09-28T08:50:25.969Z,82.09667969
2022-09-28T08:51:28.355Z,81.66601563
2022-09-28T08:52:20.977Z,81.62304688
2022-09-28T08:53:23.464Z,81.67089844
2022-09-28T08:54:17.336Z,81.34277344
2022-09-28T08:55:55.571Z,81.90234375
2022-09-28T08:56:50.853Z,81.56738281
2022-09-28T08:58:25.300Z,80.9765625
2022-09-28T09:00:01.032Z,80.29101563
2022-09-28T09:00:58.059Z,80.09960938
2022-09-28T09:01:58.586Z,80.24316406
2022-09-28T09:03:52.542Z,80.14453125
2022-09-28T09:04:31.722Z,80.20507813
2022-09-28T09:05:29.735Z,80.42578125
2022-09-28T09:06:29.375Z,80.30859375
2022-09-28T09:07:24.082Z,80.02539063
2022-09-28T09:08:24.763Z,80.47851563
2022-09-28T09:09:19.929Z,80.18066406
2022-09-28T09:10:19.747Z,80.68066406
2022-09-28T09:12:14.071Z,81.12402344
2022-09-28T09:13:09.268Z,81.12792969
2022-09-28T09:14:08.830Z,81.38378906
2022-09-28T09:15:04.047Z,81.45117188
2022-09-28T09:16:04.071Z,81.69433594
2022-09-28T09:17:00.639Z,81.42285156
2022-09-28T09:18:58.996Z,80.85742188
2022-09-28T09:19:56.346Z,80.4375
2022-09-28T09:21:50.902Z,80.66015625
2022-09-28T09:22:53.544Z,80.81542969
2022-09-28T09:23:46.062Z,80.86035156
2022-09-28T09:24:47.907Z,80.53222656
2022-09-28T09:26:42.529Z,81.39746094
2022-09-28T09:27:35.057Z,81.20800781
2022-09-28T09:28:37.232Z,80.99902344
2022-09-28T09:29:29.855Z,81.05273438
2022-09-28T09:31:25.473Z,80.60351563
2022-09-28T09:32:25.888Z,80.49023438
2022-09-28T09:33:22.228Z,80.46777344
2022-09-28T09:34:21.944Z,80.38867188
2022-09-28T09:35:17.776Z,80.4140625
2022-09-28T09:37:12.370Z,80.81152344
2022-09-28T09:38:12.287Z,80.68945313
2022-09-28T09:39:07.834Z,80.25
2022-09-28T09:40:46.475Z,79.85644531
2022-09-28T09:41:25.868Z,80.03417969
2022-09-28T09:42:23.647Z,78.92480469
2022-09-28T09:43:27.965Z,79.20800781
2022-09-28T09:43:31.600Z,79.20800781
2022-09-28T09:44:23.063Z,79.52050781
2022-09-28T09:46:19.865Z,79.29199219
2022-09-28T09:47:22.715Z,79.40136719
2022-09-28T09:48:20.750Z,79.33886719
2022-09-28T09:49:23.657Z,79.05078125
2022-09-28T09:50:22.626Z,78.39550781
2022-09-28T09:51:21.012Z,78.25585938
2022-09-28T09:52:24.284Z,76.171875
2022-09-28T09:53:18.008Z,76.49804688
2022-09-28T09:54:18.140Z,77.24121094
2022-09-28T09:55:13.892Z,77.90527344
2022-09-28T09:57:11.042Z,78.21972656
2022-09-28T09:58:10.295Z,77.76953125
2022-09-28T09:59:13.506Z,77.75195313
2022-09-28T10:00:08.954Z,77.3984375
2022-09-28T10:01:13.256Z,77.62792969
2022-09-28T10:02:11.659Z,77.41601563
2022-09-28T10:03:10.874Z,76.93554688
2022-09-28T10:04:08.077Z,76.81542969
2022-09-28T10:05:12.728Z,76.92089844
2022-09-28T10:06:07.631Z,77.16503906
2022-09-28T10:07:06.723Z,76.48828125
2022-09-28T10:08:06.770Z,76.11230469
2022-09-28T10:09:08.661Z,76.45605469
2022-09-28T10:10:05.939Z,76.60351563
2022-09-28T10:12:02.486Z,76.62011719
2022-09-28T10:13:55.734Z,75.61230469
2022-09-28T10:14:35.450Z,75.28613281
2022-09-28T10:16:33.446Z,75.51660156
2022-09-28T10:17:29.549Z,75.375
2022-09-28T10:18:28.526Z,75.83203125
2022-09-28T10:19:26.087Z,76.12011719
2022-09-28T10:21:26.756Z,76.73339844
2022-09-28T10:22:19.412Z,76.85839844
2022-09-28T10:23:15.371Z,76.74609375
2022-09-28T10:24:14.711Z,76.79101563
2022-09-28T10:25:10.071Z,76.72851563
2022-09-28T10:27:05.058Z,76.32226563
2022-09-28T10:28:04.873Z,76.82519531
2022-09-28T10:29:03.734Z,77.26367188
2022-09-28T10:29:59.050Z,77.21679688
2022-09-28T10:31:53.210Z,76.96191406
2022-09-28T10:32:53.284Z,76.99414063
2022-09-28T10:33:49.556Z,77.28613281
2022-09-28T10:34:50.976Z,77.60546875
2022-09-28T10:35:47.441Z,77.80175781
2022-09-28T10:36:43.055Z,77.54003906
2022-09-28T10:37:43.464Z,77.60742188
2022-09-28T10:38:38.797Z,77.73046875
2022-09-28T10:39:36.258Z,77.56054688
2022-09-28T10:41:31.185Z,76.8203125
2022-09-28T10:42:28.668Z,77.03417969
2022-09-28T10:43:28.909Z,76.95410156
2022-09-28T10:44:24.262Z,77.12207031
2022-09-28T10:46:02.383Z,77.37792969
2022-09-28T10:46:43.079Z,77.9375
2022-09-28T10:47:42.009Z,77.81542969
2022-09-28T10:48:41.988Z,77.24511719
2022-09-28T10:49:46.854Z,77.79199219
2022-09-28T10:51:36.297Z,77.43164063
2022-09-28T10:52:31.789Z,77.27148438
2022-09-28T10:53:34.818Z,77.15429688
2022-09-28T10:54:28.325Z,77.60253906
2022-09-28T10:56:25.073Z,77.02148438
2022-09-28T10:57:25.827Z,77.35839844
2022-09-28T10:58:22.006Z,77.67773438
2022-09-28T10:59:20.515Z,78.01953125
2022-09-28T11:00:21.553Z,77.421875
2022-09-28T11:01:18.653Z,77.04296875
2022-09-28T11:02:21.700Z,73.72460938
2022-09-28T11:03:21.233Z,74.43066406
2022-09-28T11:04:19.736Z,75.70019531
2022-09-28T11:05:15.185Z,76.47070313
2022-09-28T11:07:15.343Z,75.52441406
2022-09-28T11:08:11.775Z,76.109375
2022-09-28T11:09:07.770Z,75.79785156
2022-09-28T11:10:12.523Z,76.01074219
2022-09-28T11:11:50.860Z,76.55273438
2022-09-28T11:12:30.999Z,77.03417969
2022-09-28T11:13:31.552Z,76.08691406
2022-09-28T11:14:41.296Z,75.31445313
2022-09-28T11:16:27.585Z,74.15917969
2022-09-28T11:17:22.380Z,74.78710938
2022-09-28T11:18:22.775Z,74.41601563
2022-09-28T11:19:19.167Z,74.33300781
2022-09-28T11:20:26.803Z,74.66015625
2022-09-28T11:20:28.192Z,74.66015625
2022-09-28T11:22:14.080Z,74.1875
2022-09-28T11:23:12.699Z,74.67675781
2022-09-28T11:24:09.652Z,74.78027344
2022-09-28T11:25:08.553Z,75.45605469
2022-09-28T11:26:05.896Z,75.86523438
2022-09-28T11:27:00.550Z,76.40527344
2022-09-28T11:28:00.274Z,76.94042969
2022-09-28T11:28:55.531Z,77.5703125
2022-09-28T11:29:55.344Z,77.09277344
2022-09-28T11:31:52.933Z,77.15429688
2022-09-28T11:32:45.488Z,77.01757813
2022-09-28T11:33:44.857Z,77.2890625
2022-09-28T11:34:58.034Z,76.84082031
2022-09-28T11:34:58.626Z,76.84082031
2022-09-28T11:34:58.641Z,76.84082031
2022-09-28T11:36:37.943Z,76.06835938
2022-09-28T11:37:33.178Z,74.75585938
2022-09-28T11:38:32.662Z,74.86816406
2022-09-28T11:39:27.989Z,75.13964844
2022-09-28T11:41:22.685Z,76.18945313
2022-09-28T11:42:21.829Z,75.70507813
2022-09-28T11:43:16.901Z,75.86132813